Ahtanum, Washington
Current Conditions -  °F | °C
As of 7:53 AM on Monday 24 Nov 2014 (Local Time) from KYKM Reporting Station
Clear Clear  
Wind Chill: 21°   Ceiling: Unl
Heat Index: 28°   Visibility: 10mi
Dew Point: 24°   Wind: 7mph
Humidity: 85%   Direction: 290°WNW
Pressure: 30.37"   Gusts: NA
Location:  46.5979°N, 120.534°W
Report Text: KYKM 241553Z AUTO 29006KT 10SM CLR M02/M04 A3037 RMK AO2 SLP294 T10221044
Loading
Personal Weather Stations






























Interactive Weather Map New forecast layout! Learn more

10-Day Weather Forecast

Advertisements
Track Severe Weather on mobile